sensor_id;sensor_type;location;lat;lon;timestamp;P1;durP1;ratioP1;P2;durP2;ratioP2
1593;SDS011;790;47.000;16.084;2023-02-28T00:01:20;4.87;;;3.50;;
1593;SDS011;790;47.000;16.084;2023-02-28T00:03:47;3.77;;;3.33;;
1593;SDS011;790;47.000;16.084;2023-02-28T00:06:16;3.50;;;3.30;;
1593;SDS011;790;47.000;16.084;2023-02-28T00:08:44;5.67;;;3.40;;
1593;SDS011;790;47.000;16.084;2023-02-28T00:11:12;5.40;;;3.43;;
1593;SDS011;790;47.000;16.084;2023-02-28T00:13:41;5.47;;;3.67;;
1593;SDS011;790;47.000;16.084;2023-02-28T00:16:12;4.20;;;3.53;;
1593;SDS011;790;47.000;16.084;2023-02-28T00:18:41;4.00;;;3.47;;
1593;SDS011;790;47.000;16.084;2023-02-28T00:21:08;3.53;;;3.30;;
1593;SDS011;790;47.000;16.084;2023-02-28T00:23:37;3.40;;;3.20;;
1593;SDS011;790;47.000;16.084;2023-02-28T00:26:04;4.20;;;3.70;;
1593;SDS011;790;47.000;16.084;2023-02-28T00:28:31;3.37;;;3.10;;
1593;SDS011;790;47.000;16.084;2023-02-28T00:30:59;3.77;;;3.43;;
1593;SDS011;790;47.000;16.084;2023-02-28T00:33:26;3.40;;;3.10;;
1593;SDS011;790;47.000;16.084;2023-02-28T00:36:01;3.07;;;2.87;;
1593;SDS011;790;47.000;16.084;2023-02-28T00:38:30;3.60;;;3.30;;
1593;SDS011;790;47.000;16.084;2023-02-28T00:40:59;3.83;;;3.53;;
1593;SDS011;790;47.000;16.084;2023-02-28T00:43:30;4.70;;;3.33;;
1593;SDS011;790;47.000;16.084;2023-02-28T00:45:58;3.73;;;3.43;;
1593;SDS011;790;47.000;16.084;2023-02-28T00:48:25;4.33;;;3.30;;
1593;SDS011;790;47.000;16.084;2023-02-28T00:50:53;3.83;;;3.30;;
1593;SDS011;790;47.000;16.084;2023-02-28T00:53:20;4.70;;;3.20;;
1593;SDS011;790;47.000;16.084;2023-02-28T00:55:48;4.17;;;3.77;;
1593;SDS011;790;47.000;16.084;2023-02-28T00:58:17;3.97;;;3.50;;
1593;SDS011;790;47.000;16.084;2023-02-28T01:00:44;4.13;;;3.73;;
1593;SDS011;790;47.000;16.084;2023-02-28T01:03:14;3.50;;;3.17;;
1593;SDS011;790;47.000;16.084;2023-02-28T01:05:41;4.20;;;3.80;;
1593;SDS011;790;47.000;16.084;2023-02-28T01:08:09;6.30;;;3.43;;
1593;SDS011;790;47.000;16.084;2023-02-28T01:10:37;5.00;;;3.57;;
1593;SDS011;790;47.000;16.084;2023-02-28T01:13:05;5.33;;;3.50;;
1593;SDS011;790;47.000;16.084;2023-02-28T01:15:33;4.40;;;3.90;;
1593;SDS011;790;47.000;16.084;2023-02-28T01:18:01;3.50;;;3.20;;
1593;SDS011;790;47.000;16.084;2023-02-28T01:20:28;4.43;;;4.03;;
1593;SDS011;790;47.000;16.084;2023-02-28T01:22:55;4.00;;;3.60;;
1593;SDS011;790;47.000;16.084;2023-02-28T01:25:22;5.00;;;4.50;;
1593;SDS011;790;47.000;16.084;2023-02-28T01:27:50;4.60;;;4.30;;
1593;SDS011;790;47.000;16.084;2023-02-28T01:30:17;4.07;;;3.43;;
1593;SDS011;790;47.000;16.084;2023-02-28T01:32:46;4.70;;;4.30;;
1593;SDS011;790;47.000;16.084;2023-02-28T01:35:13;3.83;;;3.53;;
1593;SDS011;790;47.000;16.084;2023-02-28T01:37:40;3.60;;;3.30;;
1593;SDS011;790;47.000;16.084;2023-02-28T01:40:08;3.93;;;3.53;;
1593;SDS011;790;47.000;16.084;2023-02-28T01:42:36;4.60;;;4.20;;
1593;SDS011;790;47.000;16.084;2023-02-28T01:45:06;6.80;;;3.87;;
1593;SDS011;790;47.000;16.084;2023-02-28T01:47:45;4.97;;;3.70;;
1593;SDS011;790;47.000;16.084;2023-02-28T01:50:17;5.50;;;4.10;;
1593;SDS011;790;47.000;16.084;2023-02-28T01:52:46;5.97;;;4.00;;
1593;SDS011;790;47.000;16.084;2023-02-28T01:55:15;3.73;;;3.43;;
1593;SDS011;790;47.000;16.084;2023-02-28T01:57:48;4.57;;;3.80;;
1593;SDS011;790;47.000;16.084;2023-02-28T02:00:19;3.70;;;3.40;;
1593;SDS011;790;47.000;16.084;2023-02-28T02:02:52;3.80;;;3.47;;
1593;SDS011;790;47.000;16.084;2023-02-28T02:05:24;3.50;;;3.20;;
1593;SDS011;790;47.000;16.084;2023-02-28T02:07:54;3.70;;;3.23;;
1593;SDS011;790;47.000;16.084;2023-02-28T02:10:24;4.43;;;3.70;;
1593;SDS011;790;47.000;16.084;2023-02-28T02:13:01;3.80;;;3.33;;
1593;SDS011;790;47.000;16.084;2023-02-28T02:15:48;4.13;;;3.77;;
1593;SDS011;790;47.000;16.084;2023-02-28T02:18:25;3.73;;;3.43;;
1593;SDS011;790;47.000;16.084;2023-02-28T02:21:15;4.17;;;3.73;;
1593;SDS011;790;47.000;16.084;2023-02-28T02:27:26;4.27;;;3.87;;
1593;SDS011;790;47.000;16.084;2023-02-28T02:30:13;4.43;;;3.43;;
1593;SDS011;790;47.000;16.084;2023-02-28T02:33:06;4.33;;;3.97;;
1593;SDS011;790;47.000;16.084;2023-02-28T02:35:53;4.37;;;3.97;;
1593;SDS011;790;47.000;16.084;2023-02-28T02:38:25;4.77;;;3.93;;
1593;SDS011;790;47.000;16.084;2023-02-28T02:41:03;4.63;;;4.20;;
1593;SDS011;790;47.000;16.084;2023-02-28T02:43:39;4.27;;;3.90;;
1593;SDS011;790;47.000;16.084;2023-02-28T02:46:12;5.17;;;4.67;;
1593;SDS011;790;47.000;16.084;2023-02-28T02:48:44;5.37;;;4.53;;
1593;SDS011;790;47.000;16.084;2023-02-28T02:51:14;4.47;;;4.07;;
1593;SDS011;790;47.000;16.084;2023-02-28T02:53:45;5.57;;;4.37;;
1593;SDS011;790;47.000;16.084;2023-02-28T02:56:16;4.50;;;4.10;;
1593;SDS011;790;47.000;16.084;2023-02-28T02:58:45;5.43;;;4.30;;
1593;SDS011;790;47.000;16.084;2023-02-28T03:01:16;4.87;;;4.37;;
1593;SDS011;790;47.000;16.084;2023-02-28T03:03:54;4.87;;;4.47;;
1593;SDS011;790;47.000;16.084;2023-02-28T03:06:24;5.97;;;4.97;;
1593;SDS011;790;47.000;16.084;2023-02-28T03:08:52;4.83;;;4.30;;
1593;SDS011;790;47.000;16.084;2023-02-28T03:11:19;5.20;;;4.70;;
1593;SDS011;790;47.000;16.084;2023-02-28T03:13:52;5.47;;;4.90;;
1593;SDS011;790;47.000;16.084;2023-02-28T03:16:35;6.03;;;5.07;;
1593;SDS011;790;47.000;16.084;2023-02-28T03:19:11;7.50;;;6.03;;
1593;SDS011;790;47.000;16.084;2023-02-28T03:21:59;12.90;;;10.47;;
1593;SDS011;790;47.000;16.084;2023-02-28T03:24:42;22.20;;;16.60;;
1593;SDS011;790;47.000;16.084;2023-02-28T03:27:16;13.40;;;10.43;;
1593;SDS011;790;47.000;16.084;2023-02-28T03:29:48;13.90;;;9.77;;
1593;SDS011;790;47.000;16.084;2023-02-28T03:32:23;12.43;;;10.07;;
1593;SDS011;790;47.000;16.084;2023-02-28T03:34:54;12.17;;;9.53;;
1593;SDS011;790;47.000;16.084;2023-02-28T03:37:27;9.30;;;8.03;;
1593;SDS011;790;47.000;16.084;2023-02-28T03:40:00;11.63;;;8.23;;
1593;SDS011;790;47.000;16.084;2023-02-28T03:42:33;9.50;;;7.40;;
1593;SDS011;790;47.000;16.084;2023-02-28T03:45:05;7.07;;;6.37;;
1593;SDS011;790;47.000;16.084;2023-02-28T03:47:38;7.50;;;6.70;;
1593;SDS011;790;47.000;16.084;2023-02-28T03:50:12;8.63;;;6.20;;
1593;SDS011;790;47.000;16.084;2023-02-28T03:52:47;7.20;;;6.47;;
1593;SDS011;790;47.000;16.084;2023-02-28T03:55:16;7.63;;;6.20;;
1593;SDS011;790;47.000;16.084;2023-02-28T03:57:47;7.17;;;5.87;;
1593;SDS011;790;47.000;16.084;2023-02-28T04:00:25;6.53;;;5.10;;
1593;SDS011;790;47.000;16.084;2023-02-28T04:02:56;5.63;;;5.10;;
1593;SDS011;790;47.000;16.084;2023-02-28T04:05:24;6.77;;;5.63;;
1593;SDS011;790;47.000;16.084;2023-02-28T04:07:54;8.10;;;6.27;;
1593;SDS011;790;47.000;16.084;2023-02-28T04:10:29;8.27;;;6.33;;
1593;SDS011;790;47.000;16.084;2023-02-28T04:12:56;10.07;;;6.83;;
1593;SDS011;790;47.000;16.084;2023-02-28T04:15:23;10.43;;;7.70;;
1593;SDS011;790;47.000;16.084;2023-02-28T04:17:52;9.87;;;7.77;;
1593;SDS011;790;47.000;16.084;2023-02-28T04:20:19;10.90;;;8.43;;
1593;SDS011;790;47.000;16.084;2023-02-28T04:22:47;8.23;;;6.77;;
1593;SDS011;790;47.000;16.084;2023-02-28T04:25:15;8.37;;;6.93;;
1593;SDS011;790;47.000;16.084;2023-02-28T04:27:43;8.93;;;6.83;;
1593;SDS011;790;47.000;16.084;2023-02-28T04:30:10;8.60;;;6.70;;
1593;SDS011;790;47.000;16.084;2023-02-28T04:32:38;10.50;;;7.20;;
1593;SDS011;790;47.000;16.084;2023-02-28T04:35:06;7.07;;;5.83;;
1593;SDS011;790;47.000;16.084;2023-02-28T04:37:33;6.90;;;5.80;;
1593;SDS011;790;47.000;16.084;2023-02-28T04:40:02;7.40;;;5.70;;
1593;SDS011;790;47.000;16.084;2023-02-28T04:42:36;6.47;;;5.50;;
1593;SDS011;790;47.000;16.084;2023-02-28T04:45:04;7.23;;;5.57;;
1593;SDS011;790;47.000;16.084;2023-02-28T04:47:32;6.10;;;5.47;;
1593;SDS011;790;47.000;16.084;2023-02-28T04:49:59;7.40;;;5.63;;
1593;SDS011;790;47.000;16.084;2023-02-28T04:52:27;6.03;;;5.47;;
1593;SDS011;790;47.000;16.084;2023-02-28T04:54:54;5.30;;;4.80;;
1593;SDS011;790;47.000;16.084;2023-02-28T04:57:21;5.53;;;5.00;;
1593;SDS011;790;47.000;16.084;2023-02-28T04:59:50;9.40;;;7.20;;
1593;SDS011;790;47.000;16.084;2023-02-28T05:02:17;9.07;;;6.87;;
1593;SDS011;790;47.000;16.084;2023-02-28T05:04:46;7.57;;;6.13;;
1593;SDS011;790;47.000;16.084;2023-02-28T05:07:13;7.30;;;6.03;;
1593;SDS011;790;47.000;16.084;2023-02-28T05:09:40;6.40;;;5.80;;
1593;SDS011;790;47.000;16.084;2023-02-28T05:12:08;6.03;;;5.33;;
1593;SDS011;790;47.000;16.084;2023-02-28T05:14:35;6.77;;;4.97;;
1593;SDS011;790;47.000;16.084;2023-02-28T05:17:04;6.50;;;5.20;;
1593;SDS011;790;47.000;16.084;2023-02-28T05:19:31;6.90;;;5.50;;
1593;SDS011;790;47.000;16.084;2023-02-28T05:21:59;5.87;;;5.20;;
1593;SDS011;790;47.000;16.084;2023-02-28T05:24:26;7.17;;;6.03;;
1593;SDS011;790;47.000;16.084;2023-02-28T05:26:53;5.37;;;4.87;;
1593;SDS011;790;47.000;16.084;2023-02-28T05:29:21;7.77;;;5.90;;
1593;SDS011;790;47.000;16.084;2023-02-28T05:31:49;8.57;;;6.27;;
1593;SDS011;790;47.000;16.084;2023-02-28T05:34:17;8.10;;;7.23;;
1593;SDS011;790;47.000;16.084;2023-02-28T05:36:45;10.93;;;6.97;;
1593;SDS011;790;47.000;16.084;2023-02-28T05:39:13;8.07;;;6.20;;
1593;SDS011;790;47.000;16.084;2023-02-28T05:41:40;6.63;;;5.93;;
1593;SDS011;790;47.000;16.084;2023-02-28T05:44:08;7.63;;;6.20;;
1593;SDS011;790;47.000;16.084;2023-02-28T05:46:35;11.63;;;6.73;;
1593;SDS011;790;47.000;16.084;2023-02-28T05:49:03;10.07;;;6.87;;
1593;SDS011;790;47.000;16.084;2023-02-28T05:51:32;10.80;;;6.40;;
1593;SDS011;790;47.000;16.084;2023-02-28T05:53:59;8.57;;;6.80;;
1593;SDS011;790;47.000;16.084;2023-02-28T05:56:27;9.90;;;6.60;;
1593;SDS011;790;47.000;16.084;2023-02-28T05:58:55;7.87;;;5.83;;
1593;SDS011;790;47.000;16.084;2023-02-28T06:01:23;6.13;;;5.53;;
1593;SDS011;790;47.000;16.084;2023-02-28T06:04:00;7.30;;;6.60;;
1593;SDS011;790;47.000;16.084;2023-02-28T06:06:29;9.43;;;6.33;;
1593;SDS011;790;47.000;16.084;2023-02-28T06:09:02;7.50;;;6.07;;
1593;SDS011;790;47.000;16.084;2023-02-28T06:11:30;6.93;;;6.23;;
1593;SDS011;790;47.000;16.084;2023-02-28T06:13:57;7.30;;;6.60;;
1593;SDS011;790;47.000;16.084;2023-02-28T06:16:26;8.03;;;6.03;;
1593;SDS011;790;47.000;16.084;2023-02-28T06:18:54;7.27;;;6.03;;
1593;SDS011;790;47.000;16.084;2023-02-28T06:21:23;7.23;;;6.27;;
1593;SDS011;790;47.000;16.084;2023-02-28T06:23:50;8.43;;;6.10;;
1593;SDS011;790;47.000;16.084;2023-02-28T06:26:20;7.10;;;6.27;;
1593;SDS011;790;47.000;16.084;2023-02-28T06:28:47;8.30;;;7.47;;
1593;SDS011;790;47.000;16.084;2023-02-28T06:31:16;10.57;;;8.70;;
1593;SDS011;790;47.000;16.084;2023-02-28T06:33:44;13.43;;;10.00;;
1593;SDS011;790;47.000;16.084;2023-02-28T06:36:12;9.10;;;7.80;;
1593;SDS011;790;47.000;16.084;2023-02-28T06:38:41;10.10;;;7.60;;
1593;SDS011;790;47.000;16.084;2023-02-28T06:41:24;9.00;;;6.50;;
1593;SDS011;790;47.000;16.084;2023-02-28T06:43:52;7.37;;;6.50;;
1593;SDS011;790;47.000;16.084;2023-02-28T06:46:20;8.47;;;6.97;;
1593;SDS011;790;47.000;16.084;2023-02-28T06:48:47;8.40;;;6.80;;
1593;SDS011;790;47.000;16.084;2023-02-28T06:51:16;8.53;;;7.43;;
1593;SDS011;790;47.000;16.084;2023-02-28T06:53:49;9.17;;;7.57;;
1593;SDS011;790;47.000;16.084;2023-02-28T06:56:20;10.17;;;7.07;;
1593;SDS011;790;47.000;16.084;2023-02-28T06:58:54;8.30;;;7.13;;
1593;SDS011;790;47.000;16.084;2023-02-28T07:01:22;7.97;;;7.00;;
1593;SDS011;790;47.000;16.084;2023-02-28T07:03:53;11.33;;;7.10;;
1593;SDS011;790;47.000;16.084;2023-02-28T07:06:34;10.47;;;7.53;;
1593;SDS011;790;47.000;16.084;2023-02-28T07:09:02;8.10;;;7.10;;
1593;SDS011;790;47.000;16.084;2023-02-28T07:11:32;9.17;;;7.00;;
1593;SDS011;790;47.000;16.084;2023-02-28T07:14:01;9.93;;;6.63;;
1593;SDS011;790;47.000;16.084;2023-02-28T07:16:28;12.13;;;7.43;;
1593;SDS011;790;47.000;16.084;2023-02-28T07:18:56;12.47;;;8.27;;
1593;SDS011;790;47.000;16.084;2023-02-28T07:21:38;12.43;;;7.87;;
1593;SDS011;790;47.000;16.084;2023-02-28T07:24:13;8.53;;;7.37;;
1593;SDS011;790;47.000;16.084;2023-02-28T07:26:55;10.13;;;7.80;;
1593;SDS011;790;47.000;16.084;2023-02-28T07:29:39;10.17;;;7.77;;
1593;SDS011;790;47.000;16.084;2023-02-28T07:32:07;11.03;;;8.13;;
1593;SDS011;790;47.000;16.084;2023-02-28T07:34:48;52.53;;;18.97;;
1593;SDS011;790;47.000;16.084;2023-02-28T07:37:16;13.80;;;7.80;;
1593;SDS011;790;47.000;16.084;2023-02-28T07:39:43;9.43;;;7.90;;
1593;SDS011;790;47.000;16.084;2023-02-28T07:42:11;12.43;;;9.83;;
1593;SDS011;790;47.000;16.084;2023-02-28T07:47:49;12.43;;;9.00;;
1593;SDS011;790;47.000;16.084;2023-02-28T07:50:30;13.33;;;7.93;;
1593;SDS011;790;47.000;16.084;2023-02-28T07:53:11;10.43;;;8.53;;
1593;SDS011;790;47.000;16.084;2023-02-28T07:55:48;10.90;;;8.70;;
1593;SDS011;790;47.000;16.084;2023-02-28T07:58:16;11.37;;;8.10;;
1593;SDS011;790;47.000;16.084;2023-02-28T08:03:50;12.83;;;8.47;;
1593;SDS011;790;47.000;16.084;2023-02-28T08:06:18;9.57;;;8.13;;
1593;SDS011;790;47.000;16.084;2023-02-28T08:08:51;13.87;;;10.20;;
1593;SDS011;790;47.000;16.084;2023-02-28T08:11:21;9.60;;;8.50;;
1593;SDS011;790;47.000;16.084;2023-02-28T08:13:48;12.93;;;10.07;;
1593;SDS011;790;47.000;16.084;2023-02-28T08:16:24;11.80;;;9.33;;
1593;SDS011;790;47.000;16.084;2023-02-28T08:18:54;12.30;;;8.77;;
1593;SDS011;790;47.000;16.084;2023-02-28T08:21:24;11.10;;;7.80;;
1593;SDS011;790;47.000;16.084;2023-02-28T08:23:52;10.27;;;8.63;;
1593;SDS011;790;47.000;16.084;2023-02-28T08:26:34;9.47;;;7.83;;
1593;SDS011;790;47.000;16.084;2023-02-28T08:29:16;12.13;;;8.87;;
1593;SDS011;790;47.000;16.084;2023-02-28T08:32:02;13.33;;;9.50;;
1593;SDS011;790;47.000;16.084;2023-02-28T08:34:42;11.23;;;8.97;;
1593;SDS011;790;47.000;16.084;2023-02-28T08:37:13;11.37;;;9.23;;
1593;SDS011;790;47.000;16.084;2023-02-28T08:39:46;10.03;;;8.70;;
1593;SDS011;790;47.000;16.084;2023-02-28T08:42:17;14.93;;;10.00;;
1593;SDS011;790;47.000;16.084;2023-02-28T08:44:53;12.20;;;9.03;;
1593;SDS011;790;47.000;16.084;2023-02-28T08:47:22;12.87;;;9.27;;
1593;SDS011;790;47.000;16.084;2023-02-28T08:49:59;12.37;;;9.87;;
1593;SDS011;790;47.000;16.084;2023-02-28T08:52:30;12.07;;;9.30;;
1593;SDS011;790;47.000;16.084;2023-02-28T08:54:58;11.67;;;9.40;;
1593;SDS011;790;47.000;16.084;2023-02-28T08:57:46;10.20;;;8.73;;
1593;SDS011;790;47.000;16.084;2023-02-28T09:00:29;14.00;;;9.63;;
1593;SDS011;790;47.000;16.084;2023-02-28T09:03:00;14.73;;;9.60;;
1593;SDS011;790;47.000;16.084;2023-02-28T09:05:43;12.50;;;10.37;;
1593;SDS011;790;47.000;16.084;2023-02-28T09:08:23;13.63;;;10.10;;
1593;SDS011;790;47.000;16.084;2023-02-28T09:10:52;18.30;;;10.17;;
1593;SDS011;790;47.000;16.084;2023-02-28T09:13:19;12.60;;;10.80;;
1593;SDS011;790;47.000;16.084;2023-02-28T09:15:47;13.90;;;11.03;;
1593;SDS011;790;47.000;16.084;2023-02-28T09:18:14;12.50;;;10.40;;
1593;SDS011;790;47.000;16.084;2023-02-28T09:20:43;13.50;;;11.10;;
1593;SDS011;790;47.000;16.084;2023-02-28T09:23:11;13.77;;;11.03;;
1593;SDS011;790;47.000;16.084;2023-02-28T09:25:44;11.73;;;9.70;;
1593;SDS011;790;47.000;16.084;2023-02-28T09:28:13;10.77;;;9.17;;
1593;SDS011;790;47.000;16.084;2023-02-28T09:30:42;10.97;;;9.47;;
1593;SDS011;790;47.000;16.084;2023-02-28T09:33:14;10.03;;;8.07;;
1593;SDS011;790;47.000;16.084;2023-02-28T09:35:47;12.27;;;9.37;;
1593;SDS011;790;47.000;16.084;2023-02-28T09:38:14;11.20;;;8.47;;
1593;SDS011;790;47.000;16.084;2023-02-28T09:40:45;10.67;;;9.13;;
1593;SDS011;790;47.000;16.084;2023-02-28T09:43:18;14.47;;;11.17;;
1593;SDS011;790;47.000;16.084;2023-02-28T09:45:48;13.27;;;10.00;;
1593;SDS011;790;47.000;16.084;2023-02-28T09:48:27;11.53;;;9.93;;
1593;SDS011;790;47.000;16.084;2023-02-28T09:51:05;14.73;;;9.50;;
1593;SDS011;790;47.000;16.084;2023-02-28T09:53:41;12.77;;;10.20;;
1593;SDS011;790;47.000;16.084;2023-02-28T09:56:11;12.57;;;9.83;;
1593;SDS011;790;47.000;16.084;2023-02-28T09:58:53;13.60;;;10.83;;
1593;SDS011;790;47.000;16.084;2023-02-28T10:01:29;12.77;;;10.13;;
1593;SDS011;790;47.000;16.084;2023-02-28T10:04:08;16.90;;;10.60;;
1593;SDS011;790;47.000;16.084;2023-02-28T10:06:43;11.17;;;9.00;;
1593;SDS011;790;47.000;16.084;2023-02-28T10:09:14;14.00;;;10.67;;
1593;SDS011;790;47.000;16.084;2023-02-28T10:11:49;13.57;;;10.63;;
1593;SDS011;790;47.000;16.084;2023-02-28T10:14:19;13.90;;;10.47;;
1593;SDS011;790;47.000;16.084;2023-02-28T10:16:48;13.20;;;10.73;;
1593;SDS011;790;47.000;16.084;2023-02-28T10:19:22;14.10;;;11.50;;
1593;SDS011;790;47.000;16.084;2023-02-28T10:22:03;12.33;;;10.97;;
1593;SDS011;790;47.000;16.084;2023-02-28T10:24:39;12.40;;;10.97;;
1593;SDS011;790;47.000;16.084;2023-02-28T10:27:14;14.97;;;11.97;;
1593;SDS011;790;47.000;16.084;2023-02-28T10:29:45;16.37;;;12.27;;
1593;SDS011;790;47.000;16.084;2023-02-28T10:32:18;15.70;;;12.03;;
1593;SDS011;790;47.000;16.084;2023-02-28T10:34:50;16.50;;;12.13;;
1593;SDS011;790;47.000;16.084;2023-02-28T10:37:20;17.00;;;12.23;;
1593;SDS011;790;47.000;16.084;2023-02-28T10:39:47;19.90;;;12.23;;
1593;SDS011;790;47.000;16.084;2023-02-28T10:42:20;14.47;;;11.90;;
1593;SDS011;790;47.000;16.084;2023-02-28T10:48:06;16.80;;;13.30;;
1593;SDS011;790;47.000;16.084;2023-02-28T10:50:55;17.97;;;13.23;;
1593;SDS011;790;47.000;16.084;2023-02-28T10:56:28;16.43;;;12.63;;
1593;SDS011;790;47.000;16.084;2023-02-28T10:58:56;20.93;;;14.30;;
1593;SDS011;790;47.000;16.084;2023-02-28T11:02:00;19.03;;;13.67;;
1593;SDS011;790;47.000;16.084;2023-02-28T11:04:34;20.10;;;13.93;;
1593;SDS011;790;47.000;16.084;2023-02-28T11:07:05;17.10;;;13.33;;
1593;SDS011;790;47.000;16.084;2023-02-28T11:09:44;18.90;;;14.30;;
1593;SDS011;790;47.000;16.084;2023-02-28T11:12:22;17.20;;;13.47;;
1593;SDS011;790;47.000;16.084;2023-02-28T11:14:52;17.00;;;14.10;;
1593;SDS011;790;47.000;16.084;2023-02-28T11:17:22;19.33;;;14.17;;
1593;SDS011;790;47.000;16.084;2023-02-28T11:20:05;18.30;;;13.97;;
1593;SDS011;790;47.000;16.084;2023-02-28T11:22:44;19.07;;;13.63;;
1593;SDS011;790;47.000;16.084;2023-02-28T11:25:16;26.37;;;15.33;;
1593;SDS011;790;47.000;16.084;2023-02-28T11:27:50;17.53;;;14.43;;
1593;SDS011;790;47.000;16.084;2023-02-28T11:30:25;17.60;;;14.40;;
1593;SDS011;790;47.000;16.084;2023-02-28T11:32:55;18.57;;;14.53;;
1593;SDS011;790;47.000;16.084;2023-02-28T11:35:28;17.10;;;13.77;;
1593;SDS011;790;47.000;16.084;2023-02-28T11:37:59;20.43;;;14.93;;
1593;SDS011;790;47.000;16.084;2023-02-28T11:40:30;18.73;;;14.20;;
1593;SDS011;790;47.000;16.084;2023-02-28T11:43:27;19.50;;;14.73;;
1593;SDS011;790;47.000;16.084;2023-02-28T11:46:12;20.10;;;14.27;;
1593;SDS011;790;47.000;16.084;2023-02-28T11:48:58;21.20;;;14.53;;
1593;SDS011;790;47.000;16.084;2023-02-28T11:51:42;23.00;;;15.13;;
1593;SDS011;790;47.000;16.084;2023-02-28T11:54:23;19.37;;;14.53;;
1593;SDS011;790;47.000;16.084;2023-02-28T11:57:49;21.53;;;16.00;;
1593;SDS011;790;47.000;16.084;2023-02-28T12:03:25;21.47;;;15.07;;
1593;SDS011;790;47.000;16.084;2023-02-28T12:06:01;19.10;;;14.80;;
1593;SDS011;790;47.000;16.084;2023-02-28T12:08:43;22.63;;;16.03;;
1593;SDS011;790;47.000;16.084;2023-02-28T12:11:19;18.63;;;15.13;;
1593;SDS011;790;47.000;16.084;2023-02-28T12:13:58;21.63;;;15.73;;
1593;SDS011;790;47.000;16.084;2023-02-28T12:16:49;23.10;;;15.87;;
1593;SDS011;790;47.000;16.084;2023-02-28T12:19:25;18.63;;;15.57;;
1593;SDS011;790;47.000;16.084;2023-02-28T12:22:17;22.10;;;15.03;;
1593;SDS011;790;47.000;16.084;2023-02-28T12:25:06;18.60;;;14.80;;
1593;SDS011;790;47.000;16.084;2023-02-28T12:27:48;17.37;;;13.87;;
1593;SDS011;790;47.000;16.084;2023-02-28T12:30:19;19.23;;;14.60;;
1593;SDS011;790;47.000;16.084;2023-02-28T12:32:52;19.50;;;14.17;;
1593;SDS011;790;47.000;16.084;2023-02-28T12:35:24;19.77;;;14.93;;
1593;SDS011;790;47.000;16.084;2023-02-28T12:37:59;19.10;;;13.80;;
1593;SDS011;790;47.000;16.084;2023-02-28T12:40:33;21.63;;;15.67;;
1593;SDS011;790;47.000;16.084;2023-02-28T12:43:12;21.03;;;14.80;;
1593;SDS011;790;47.000;16.084;2023-02-28T12:45:42;23.73;;;15.00;;
1593;SDS011;790;47.000;16.084;2023-02-28T12:48:22;24.73;;;16.43;;
1593;SDS011;790;47.000;16.084;2023-02-28T12:50:54;20.67;;;15.60;;
1593;SDS011;790;47.000;16.084;2023-02-28T12:53:23;22.60;;;16.07;;
1593;SDS011;790;47.000;16.084;2023-02-28T12:55:56;22.17;;;15.07;;
1593;SDS011;790;47.000;16.084;2023-02-28T12:58:35;21.03;;;14.60;;
1593;SDS011;790;47.000;16.084;2023-02-28T13:01:21;20.17;;;15.83;;
1593;SDS011;790;47.000;16.084;2023-02-28T13:04:24;23.87;;;15.93;;
1593;SDS011;790;47.000;16.084;2023-02-28T13:07:22;26.17;;;15.77;;
1593;SDS011;790;47.000;16.084;2023-02-28T13:10:16;20.53;;;15.27;;
1593;SDS011;790;47.000;16.084;2023-02-28T13:12:48;21.07;;;15.37;;
1593;SDS011;790;47.000;16.084;2023-02-28T13:15:19;21.80;;;15.40;;
1593;SDS011;790;47.000;16.084;2023-02-28T13:17:50;20.17;;;15.27;;
1593;SDS011;790;47.000;16.084;2023-02-28T13:20:20;19.43;;;15.23;;
1593;SDS011;790;47.000;16.084;2023-02-28T13:22:50;19.27;;;14.43;;
1593;SDS011;790;47.000;16.084;2023-02-28T13:31:32;19.57;;;14.70;;
1593;SDS011;790;47.000;16.084;2023-02-28T13:34:21;18.63;;;14.00;;
1593;SDS011;790;47.000;16.084;2023-02-28T13:36:49;21.37;;;15.53;;
1593;SDS011;790;47.000;16.084;2023-02-28T13:42:33;23.97;;;15.03;;
1593;SDS011;790;47.000;16.084;2023-02-28T13:47:53;21.03;;;15.97;;
1593;SDS011;790;47.000;16.084;2023-02-28T13:50:38;20.50;;;14.87;;
1593;SDS011;790;47.000;16.084;2023-02-28T13:53:19;18.63;;;14.40;;
1593;SDS011;790;47.000;16.084;2023-02-28T13:55:58;20.17;;;14.80;;
1593;SDS011;790;47.000;16.084;2023-02-28T13:58:38;19.13;;;15.63;;
1593;SDS011;790;47.000;16.084;2023-02-28T14:01:29;21.70;;;15.50;;
1593;SDS011;790;47.000;16.084;2023-02-28T14:07:07;18.53;;;14.03;;
1593;SDS011;790;47.000;16.084;2023-02-28T14:09:46;19.43;;;14.37;;
1593;SDS011;790;47.000;16.084;2023-02-28T14:18:17;17.43;;;14.63;;
1593;SDS011;790;47.000;16.084;2023-02-28T14:20:52;17.50;;;13.80;;
1593;SDS011;790;47.000;16.084;2023-02-28T14:26:55;19.30;;;13.57;;
1593;SDS011;790;47.000;16.084;2023-02-28T14:29:39;17.33;;;13.43;;
1593;SDS011;790;47.000;16.084;2023-02-28T14:32:25;17.23;;;12.90;;
1593;SDS011;790;47.000;16.084;2023-02-28T14:35:01;16.73;;;12.23;;
1593;SDS011;790;47.000;16.084;2023-02-28T14:37:53;19.33;;;12.90;;
1593;SDS011;790;47.000;16.084;2023-02-28T14:40:26;17.30;;;13.07;;
1593;SDS011;790;47.000;16.084;2023-02-28T14:43:19;15.10;;;12.17;;
1593;SDS011;790;47.000;16.084;2023-02-28T14:45:51;14.00;;;11.53;;
1593;SDS011;790;47.000;16.084;2023-02-28T14:48:22;16.10;;;12.27;;
1593;SDS011;790;47.000;16.084;2023-02-28T14:50:52;13.97;;;11.97;;
1593;SDS011;790;47.000;16.084;2023-02-28T14:53:25;13.63;;;11.43;;
1593;SDS011;790;47.000;16.084;2023-02-28T14:55:58;15.80;;;11.80;;
1593;SDS011;790;47.000;16.084;2023-02-28T14:58:26;16.33;;;12.37;;
1593;SDS011;790;47.000;16.084;2023-02-28T15:00:55;16.87;;;12.27;;
1593;SDS011;790;47.000;16.084;2023-02-28T15:03:25;15.77;;;12.53;;
1593;SDS011;790;47.000;16.084;2023-02-28T15:06:00;17.20;;;12.57;;
1593;SDS011;790;47.000;16.084;2023-02-28T15:08:30;14.40;;;11.53;;
1593;SDS011;790;47.000;16.084;2023-02-28T15:11:06;15.40;;;12.70;;
1593;SDS011;790;47.000;16.084;2023-02-28T15:13:36;13.60;;;11.20;;
1593;SDS011;790;47.000;16.084;2023-02-28T15:16:08;12.40;;;11.10;;
1593;SDS011;790;47.000;16.084;2023-02-28T15:18:41;14.97;;;11.97;;
1593;SDS011;790;47.000;16.084;2023-02-28T15:21:13;12.03;;;10.80;;
1593;SDS011;790;47.000;16.084;2023-02-28T15:23:45;14.80;;;11.20;;
1593;SDS011;790;47.000;16.084;2023-02-28T15:26:17;22.30;;;16.87;;
1593;SDS011;790;47.000;16.084;2023-02-28T15:28:47;17.70;;;12.13;;
1593;SDS011;790;47.000;16.084;2023-02-28T15:31:19;14.17;;;12.67;;
1593;SDS011;790;47.000;16.084;2023-02-28T15:33:53;13.33;;;10.83;;
1593;SDS011;790;47.000;16.084;2023-02-28T15:36:23;12.63;;;10.80;;
1593;SDS011;790;47.000;16.084;2023-02-28T15:38:53;13.30;;;11.87;;
1593;SDS011;790;47.000;16.084;2023-02-28T15:41:25;13.67;;;11.17;;
1593;SDS011;790;47.000;16.084;2023-02-28T15:46:57;17.43;;;13.10;;
1593;SDS011;790;47.000;16.084;2023-02-28T15:49:28;16.37;;;11.83;;
1593;SDS011;790;47.000;16.084;2023-02-28T15:51:59;14.30;;;11.93;;
1593;SDS011;790;47.000;16.084;2023-02-28T15:54:28;20.77;;;16.13;;
1593;SDS011;790;47.000;16.084;2023-02-28T15:57:03;20.47;;;14.07;;
1593;SDS011;790;47.000;16.084;2023-02-28T15:59:33;19.83;;;15.00;;
1593;SDS011;790;47.000;16.084;2023-02-28T16:02:11;15.03;;;11.53;;
1593;SDS011;790;47.000;16.084;2023-02-28T16:04:59;16.30;;;12.40;;
1593;SDS011;790;47.000;16.084;2023-02-28T16:07:29;15.10;;;11.13;;
1593;SDS011;790;47.000;16.084;2023-02-28T16:09:56;15.60;;;11.27;;
1593;SDS011;790;47.000;16.084;2023-02-28T16:12:26;14.23;;;12.30;;
1593;SDS011;790;47.000;16.084;2023-02-28T16:14:55;14.97;;;11.40;;
1593;SDS011;790;47.000;16.084;2023-02-28T16:17:26;15.47;;;11.47;;
1593;SDS011;790;47.000;16.084;2023-02-28T16:19:56;12.77;;;10.67;;
1593;SDS011;790;47.000;16.084;2023-02-28T16:22:25;15.57;;;11.83;;